Time;durP1;ratioP1;P1;durP2;ratioP2;P2;SDS_P1;SDS_P2;PMS_P1;PMS_P2;Temp;Humidity;BMP_temperature;BMP_pressure;BME280_temperature;BME280_humidity;BME280_pressure;Samples;Min_cycle;Max_cycle;Signal;HPM_P1;HPM_P2
2022/08/24 00:01:16;;;;;;;2.78;1.52;;;15.90;99.90;;;;;;5028839;28;20136;-76
2022/08/24 00:03:43;;;;;;;1.40;1.30;;;15.80;99.90;;;;;;5028760;28;20068;-77
2022/08/24 00:06:11;;;;;;;1.40;1.30;;;15.70;99.90;;;;;;5027403;28;20491;-76
2022/08/24 00:08:38;;;;;;;1.67;1.35;;;15.70;99.90;;;;;;5030550;28;20119;-76
2022/08/24 00:11:04;;;;;;;1.30;1.15;;;15.80;99.90;;;;;;5027941;28;20473;-76
2022/08/24 00:13:30;;;;;;;1.75;1.65;;;15.80;99.90;;;;;;5028657;28;20151;-76
2022/08/24 00:15:56;;;;;;;1.42;1.20;;;15.60;99.90;;;;;;5025683;28;20029;-76
2022/08/24 00:18:22;;;;;;;1.17;1.08;;;15.50;99.90;;;;;;5026181;28;20040;-77
2022/08/24 00:20:47;;;;;;;1.95;1.20;;;15.50;99.90;;;;;;5028501;28;20021;-76
2022/08/24 00:23:14;;;;;;;1.80;1.50;;;15.50;99.90;;;;;;5027519;28;20021;-76
2022/08/24 00:25:40;;;;;;;1.42;1.17;;;15.40;99.90;;;;;;5028344;28;20112;-76
2022/08/24 00:28:06;;;;;;;1.23;0.98;;;15.30;99.90;;;;;;5020436;28;20048;-77
2022/08/24 00:30:32;;;;;;;1.17;1.08;;;15.30;99.90;;;;;;5028300;28;20500;-77
2022/08/24 00:32:57;;;;;;;2.08;1.27;;;15.30;99.90;;;;;;5024616;28;20124;-76
2022/08/24 00:35:23;;;;;;;4.30;1.58;;;15.30;99.90;;;;;;5027520;28;20081;-76
2022/08/24 00:37:50;;;;;;;1.98;1.48;;;15.40;99.90;;;;;;5028713;28;20049;-76
2022/08/24 00:40:21;;;;;;;1.65;1.17;;;15.40;99.90;;;;;;5029769;28;20511;-77
2022/08/24 00:42:46;;;;;;;1.55;0.90;;;15.40;99.90;;;;;;5027620;28;20293;-77
2022/08/24 00:45:15;;;;;;;1.20;1.10;;;15.50;99.90;;;;;;5027245;28;20419;-77
2022/08/24 00:48:06;;;;;;;1.35;1.08;;;15.40;99.90;;;;;;5025969;28;20033;-76
2022/08/24 00:50:46;;;;;;;1.33;1.20;;;15.30;99.90;;;;;;5029161;28;20037;-76
2022/08/24 00:53:32;;;;;;;2.20;1.15;;;15.20;99.90;;;;;;5029682;28;20037;-76
2022/08/24 00:56:02;;;;;;;1.20;1.10;;;15.20;99.90;;;;;;5029883;28;20029;-77
2022/08/24 00:58:34;;;;;;;1.42;1.30;;;15.30;99.90;;;;;;5020465;28;20601;-76
2022/08/24 01:01:03;;;;;;;1.38;1.10;;;15.20;99.90;;;;;;5029836;28;20040;-77
2022/08/24 01:03:30;;;;;;;0.93;0.90;;;15.20;99.90;;;;;;5026815;28;20545;-76
2022/08/24 01:05:56;;;;;;;1.80;1.27;;;15.10;99.90;;;;;;5027759;28;20040;-76
2022/08/24 01:08:23;;;;;;;1.27;1.17;;;15.10;99.90;;;;;;5028087;28;20030;-76
2022/08/24 01:10:52;;;;;;;1.40;1.17;;;14.90;99.90;;;;;;5028900;28;20285;-76
2022/08/24 01:13:19;;;;;;;1.50;1.33;;;15.10;99.90;;;;;;5025053;28;20059;-77
2022/08/24 01:15:48;;;;;;;1.55;1.40;;;15.20;99.90;;;;;;5029520;28;20095;-77
2022/08/24 01:21:13;;;;;;;1.65;1.30;;;15.30;99.90;;;;;;5026040;28;20096;-77
2022/08/24 01:23:46;;;;;;;1.73;1.30;;;15.50;99.90;;;;;;5026096;28;20034;-77
2022/08/24 01:26:17;;;;;;;1.10;1.00;;;15.40;99.90;;;;;;5025070;28;20026;-77
2022/08/24 01:28:46;;;;;;;1.67;1.17;;;15.30;99.90;;;;;;5027903;28;20068;-77
2022/08/24 01:31:11;;;;;;;2.53;1.55;;;15.30;99.90;;;;;;5023822;28;20073;-77
2022/08/24 01:33:37;;;;;;;1.50;1.13;;;15.20;99.90;;;;;;5027554;28;20100;-77
2022/08/24 01:36:30;;;;;;;2.58;1.30;;;15.10;99.90;;;;;;5019694;28;20087;-77
2022/08/24 01:39:01;;;;;;;0.98;0.93;;;15.10;99.90;;;;;;5020896;28;20025;-77
2022/08/24 01:41:26;;;;;;;3.80;1.63;;;15.20;99.90;;;;;;5028617;28;20225;-77
2022/08/24 01:43:52;;;;;;;1.00;1.00;;;15.20;99.90;;;;;;5029153;28;20384;-77
2022/08/24 01:46:17;;;;;;;1.95;1.35;;;15.10;99.90;;;;;;5022638;28;20387;-77
2022/08/24 01:48:43;;;;;;;1.50;1.40;;;15.00;99.90;;;;;;5027052;28;20071;-77
2022/08/24 01:51:09;;;;;;;1.65;1.55;;;15.00;99.90;;;;;;5024737;28;20503;-78
2022/08/24 01:53:35;;;;;;;1.25;1.15;;;15.20;99.90;;;;;;5026829;28;20068;-77
2022/08/24 01:56:01;;;;;;;2.45;1.23;;;15.40;99.90;;;;;;5025140;28;20033;-77
2022/08/24 01:58:27;;;;;;;2.53;1.30;;;15.60;99.90;;;;;;5027445;28;20590;-76
2022/08/24 02:00:52;;;;;;;1.73;1.35;;;15.70;99.90;;;;;;5024156;28;20026;-76
2022/08/24 02:03:19;;;;;;;1.65;1.40;;;15.70;99.90;;;;;;5026823;28;20491;-77
2022/08/24 02:05:44;;;;;;;1.67;1.35;;;15.80;99.90;;;;;;5023978;28;20042;-77
2022/08/24 02:08:10;;;;;;;1.42;1.30;;;15.90;99.90;;;;;;5026358;28;20372;-76
2022/08/24 02:10:35;;;;;;;1.20;1.10;;;16.10;99.90;;;;;;5025348;28;20037;-77
2022/08/24 02:13:02;;;;;;;1.48;1.35;;;16.20;99.90;;;;;;5027552;28;20075;-76
2022/08/24 02:15:30;;;;;;;1.35;1.20;;;16.20;99.90;;;;;;5025582;28;20136;-76
2022/08/24 02:17:57;;;;;;;1.70;1.45;;;16.30;99.90;;;;;;5026333;28;20039;-76
2022/08/24 02:20:23;;;;;;;1.58;1.33;;;16.20;99.90;;;;;;5025558;28;20026;-76
2022/08/24 02:22:50;;;;;;;1.98;1.40;;;16.10;99.90;;;;;;5026388;28;20033;-76
2022/08/24 02:25:16;;;;;;;1.40;1.30;;;16.00;99.90;;;;;;5023341;28;20587;-76
2022/08/24 02:27:42;;;;;;;2.13;1.30;;;16.00;99.90;;;;;;5024793;28;20033;-77
2022/08/24 02:30:08;;;;;;;2.20;1.60;;;16.00;99.90;;;;;;5026894;28;20495;-77
2022/08/24 02:32:33;;;;;;;2.13;1.60;;;16.10;99.90;;;;;;5025251;28;20087;-77
2022/08/24 02:34:59;;;;;;;1.50;1.38;;;16.00;99.90;;;;;;5026288;28;20220;-77
2022/08/24 02:37:24;;;;;;;2.42;1.50;;;15.90;99.90;;;;;;5024949;28;20083;-77
2022/08/24 02:39:51;;;;;;;1.80;1.63;;;15.80;99.90;;;;;;5020607;28;20117;-77
2022/08/24 02:42:17;;;;;;;1.63;1.30;;;15.70;99.90;;;;;;5036648;28;20057;-76
2022/08/24 02:44:42;;;;;;;1.52;1.30;;;15.60;99.90;;;;;;5022704;28;20060;-76
2022/08/24 02:47:09;;;;;;;2.05;1.55;;;15.50;99.90;;;;;;5032814;28;20041;-76
2022/08/24 02:49:35;;;;;;;1.70;1.40;;;15.40;99.90;;;;;;5020674;28;20511;-77
2022/08/24 02:52:02;;;;;;;2.95;1.50;;;15.40;99.90;;;;;;5024652;28;20032;-77
2022/08/24 02:54:27;;;;;;;2.38;1.88;;;15.40;99.90;;;;;;5026875;28;20033;-76
2022/08/24 02:56:53;;;;;;;2.35;1.48;;;15.30;99.90;;;;;;5025123;28;20025;-76
2022/08/24 02:59:19;;;;;;;1.77;1.25;;;15.30;99.90;;;;;;5027345;28;20108;-76
2022/08/24 03:01:45;;;;;;;1.70;1.45;;;15.20;99.90;;;;;;5025698;28;20476;-76
2022/08/24 03:04:12;;;;;;;1.58;1.38;;;15.20;99.90;;;;;;5028655;28;20029;-77
2022/08/24 03:06:37;;;;;;;2.13;1.52;;;15.20;99.90;;;;;;5027013;28;20087;-77
2022/08/24 03:09:03;;;;;;;2.42;1.83;;;15.20;99.90;;;;;;5026166;28;20112;-76
2022/08/24 03:11:29;;;;;;;1.70;1.33;;;15.20;99.90;;;;;;5024653;28;20030;-77
2022/08/24 03:14:00;;;;;;;2.38;1.60;;;15.30;99.90;;;;;;5023705;28;20439;-76
2022/08/24 03:16:27;;;;;;;2.55;1.70;;;15.30;99.90;;;;;;5026738;28;20484;-76
2022/08/24 03:18:52;;;;;;;2.35;1.67;;;15.20;99.90;;;;;;5026558;28;20092;-77
2022/08/24 03:21:18;;;;;;;2.00;1.77;;;15.20;99.90;;;;;;5026722;28;20488;-76
2022/08/24 03:23:44;;;;;;;1.88;1.35;;;15.00;99.90;;;;;;5023761;28;20252;-77
2022/08/24 03:26:10;;;;;;;1.38;1.20;;;15.10;99.90;;;;;;5026237;28;20059;-77
2022/08/24 03:28:35;;;;;;;2.85;1.40;;;15.00;99.90;;;;;;5026239;28;20135;-77
2022/08/24 03:31:01;;;;;;;1.92;1.58;;;14.90;99.90;;;;;;5026749;28;20052;-77
2022/08/24 03:33:26;;;;;;;2.03;1.50;;;15.00;99.90;;;;;;5026092;28;20034;-77
2022/08/24 03:35:52;;;;;;;2.53;1.52;;;15.00;99.90;;;;;;5023468;28;20589;-77
2022/08/24 03:38:17;;;;;;;2.45;1.63;;;14.90;99.90;;;;;;5026346;28;20033;-77
2022/08/24 03:40:43;;;;;;;1.75;1.60;;;14.80;99.90;;;;;;5025300;28;20021;-77
2022/08/24 03:43:44;;;;;;;3.33;1.88;;;14.70;99.90;;;;;;5026736;28;20026;-77
2022/08/24 03:45:54;;;;;;;1.83;1.58;;;14.60;99.90;;;;;;5025001;28;20038;-77
2022/08/24 03:48:20;;;;;;;1.90;1.70;;;14.70;99.90;;;;;;5023395;28;20083;-77
2022/08/24 03:50:45;;;;;;;1.52;1.38;;;14.70;99.90;;;;;;5025164;28;20060;-77
2022/08/24 03:53:11;;;;;;;2.30;1.45;;;14.60;99.90;;;;;;5020944;28;20563;-77
2022/08/24 03:55:36;;;;;;;3.13;2.10;;;14.60;99.90;;;;;;5025158;28;20065;-77
2022/08/24 03:58:02;;;;;;;1.63;1.40;;;14.50;99.90;;;;;;5025456;28;20079;-77
2022/08/24 04:00:27;;;;;;;2.08;1.67;;;14.60;99.90;;;;;;5023271;28;20026;-76
2022/08/24 04:02:53;;;;;;;2.97;1.42;;;14.80;99.90;;;;;;5021326;28;20517;-78
2022/08/24 04:05:18;;;;;;;1.65;1.55;;;14.70;99.90;;;;;;5022371;28;20025;-78
2022/08/24 04:07:43;;;;;;;2.17;1.45;;;14.60;99.90;;;;;;5024113;28;20435;-78
2022/08/24 04:10:13;;;;;;;1.70;1.48;;;14.60;99.90;;;;;;5022452;28;20038;-77
2022/08/24 04:12:39;;;;;;;1.80;1.48;;;14.50;99.90;;;;;;5023606;28;20032;-78
2022/08/24 04:15:05;;;;;;;1.50;1.40;;;14.50;99.90;;;;;;5025085;28;20128;-78
2022/08/24 04:17:31;;;;;;;1.92;1.58;;;14.50;99.90;;;;;;5025707;28;20594;-78
2022/08/24 04:19:57;;;;;;;1.95;1.60;;;14.50;99.90;;;;;;5025657;28;20105;-77
2022/08/24 04:22:25;;;;;;;1.80;1.60;;;14.50;99.90;;;;;;5022097;28;20538;-78
2022/08/24 04:24:50;;;;;;;2.65;1.98;;;14.50;99.90;;;;;;5024734;28;20105;-78
2022/08/24 04:27:16;;;;;;;1.85;1.45;;;14.70;99.90;;;;;;5025215;28;20475;-78
2022/08/24 04:29:42;;;;;;;2.30;1.52;;;14.60;99.90;;;;;;5023288;28;20045;-78
2022/08/24 04:32:08;;;;;;;3.45;1.70;;;14.60;99.90;;;;;;5023341;28;20040;-78
2022/08/24 04:34:33;;;;;;;2.42;1.83;;;14.50;99.90;;;;;;5023711;28;20029;-78
2022/08/24 04:36:59;;;;;;;1.80;1.52;;;14.50;99.90;;;;;;5023492;28;20017;-78
2022/08/24 04:39:25;;;;;;;2.33;1.67;;;14.60;99.90;;;;;;5021773;28;20112;-78
2022/08/24 04:41:50;;;;;;;2.75;1.98;;;14.70;99.90;;;;;;5021082;28;20028;-78
2022/08/24 04:44:15;;;;;;;2.15;1.60;;;14.90;99.90;;;;;;5022945;28;20029;-78
2022/08/24 04:46:41;;;;;;;2.47;1.73;;;15.00;99.90;;;;;;5024052;28;20056;-78
2022/08/24 04:49:07;;;;;;;1.40;1.15;;;15.20;99.90;;;;;;5027281;28;20033;-78
2022/08/24 04:51:32;;;;;;;3.97;1.55;;;15.50;99.90;;;;;;5026761;28;20053;-78
2022/08/24 04:53:58;;;;;;;2.53;1.77;;;15.60;99.90;;;;;;5025530;28;20030;-78
2022/08/24 04:56:24;;;;;;;3.25;1.90;;;15.80;99.90;;;;;;5021536;28;20040;-78
2022/08/24 04:58:51;;;;;;;2.92;1.88;;;15.90;99.90;;;;;;5026018;28;20029;-78
2022/08/24 05:01:21;;;;;;;4.53;2.75;;;16.00;99.90;;;;;;5026955;28;20100;-77
2022/08/24 05:03:49;;;;;;;5.47;2.55;;;16.20;99.90;;;;;;5027114;28;20029;-77
2022/08/24 05:06:17;;;;;;;3.20;2.58;;;16.40;99.90;;;;;;5025909;28;20025;-77
2022/08/24 05:08:43;;;;;;;4.05;2.60;;;16.60;99.90;;;;;;5025387;28;20025;-77
2022/08/24 05:11:08;;;;;;;5.68;2.88;;;16.60;99.90;;;;;;5025106;28;20102;-78
2022/08/24 05:13:35;;;;;;;3.28;1.98;;;16.50;99.90;;;;;;5026666;28;20041;-77
2022/08/24 05:16:05;;;;;;;4.50;1.90;;;16.70;99.90;;;;;;5030608;28;20029;-78
2022/08/24 05:18:34;;;;;;;2.40;2.00;;;16.90;99.90;;;;;;5023247;28;20057;-78
2022/08/24 05:21:00;;;;;;;3.83;2.55;;;17.00;99.90;;;;;;5024069;28;20097;-78
2022/08/24 05:23:26;;;;;;;3.75;2.22;;;17.20;99.90;;;;;;5028976;28;20156;-78
2022/08/24 05:25:51;;;;;;;2.47;1.85;;;17.10;99.90;;;;;;5026690;28;20053;-78
2022/08/24 05:28:17;;;;;;;3.05;1.92;;;17.10;99.90;;;;;;5025643;28;20033;-77
2022/08/24 05:30:43;;;;;;;3.90;1.63;;;17.20;99.90;;;;;;5026945;28;20049;-80
2022/08/24 05:33:09;;;;;;;2.33;1.58;;;17.30;99.90;;;;;;5025809;28;20025;-81
2022/08/24 05:35:39;;;;;;;1.48;1.27;;;17.40;99.90;;;;;;5029027;28;20038;-81
2022/08/24 05:38:05;;;;;;;2.35;1.60;;;17.50;99.90;;;;;;5028649;28;20493;-80
2022/08/24 05:40:30;;;;;;;3.30;1.63;;;17.40;99.90;;;;;;5029014;28;20029;-80
2022/08/24 05:42:56;;;;;;;1.55;1.30;;;17.40;99.90;;;;;;5026749;28;20024;-80
2022/08/24 05:45:21;;;;;;;1.75;1.52;;;17.40;99.90;;;;;;5027128;28;20552;-81
2022/08/24 05:47:47;;;;;;;2.70;1.85;;;17.40;99.90;;;;;;5025144;28;20045;-78
2022/08/24 05:50:12;;;;;;;2.75;1.75;;;17.50;99.90;;;;;;5022933;28;20025;-79
2022/08/24 05:52:38;;;;;;;5.68;2.00;;;17.40;99.90;;;;;;5020197;28;20029;-78
2022/08/24 05:55:04;;;;;;;4.57;1.80;;;17.60;99.90;;;;;;5032025;28;20017;-79
2022/08/24 05:57:33;;;;;;;2.15;1.60;;;17.60;99.90;;;;;;5027965;28;20033;-79
2022/08/24 05:59:59;;;;;;;2.38;1.92;;;17.60;99.90;;;;;;5026522;28;20103;-80
2022/08/24 06:02:24;;;;;;;2.08;1.88;;;17.80;99.90;;;;;;5030884;28;20484;-78
2022/08/24 06:04:50;;;;;;;1.90;1.60;;;17.90;99.90;;;;;;5027391;28;20075;-78
2022/08/24 06:07:16;;;;;;;3.10;2.10;;;18.10;99.90;;;;;;5026024;28;20391;-77
2022/08/24 06:09:41;;;;;;;3.13;2.17;;;18.30;99.90;;;;;;5014851;28;20033;-77
2022/08/24 06:12:10;;;;;;;8.82;2.35;;;18.30;99.90;;;;;;5027656;28;20025;-77
2022/08/24 06:14:36;;;;;;;3.92;2.22;;;18.40;99.90;;;;;;5020427;28;20036;-77
2022/08/24 06:17:07;;;;;;;3.58;2.35;;;18.60;99.90;;;;;;5015215;28;20024;-76
2022/08/24 06:19:33;;;;;;;4.37;2.37;;;18.60;99.90;;;;;;5021826;28;20492;-77
2022/08/24 06:22:00;;;;;;;3.72;2.60;;;18.50;99.90;;;;;;5023737;28;20105;-76
2022/08/24 06:27:21;;;;;;;9.07;2.38;;;18.90;99.90;;;;;;5020004;28;20132;-79
2022/08/24 06:29:50;;;;;;;7.03;3.55;;;19.10;99.90;;;;;;5022054;28;20446;-78
2022/08/24 06:32:15;;;;;;;6.25;2.83;;;19.10;99.90;;;;;;5021252;28;20076;-77
2022/08/24 06:34:41;;;;;;;4.25;2.42;;;19.00;99.90;;;;;;5018881;28;20064;-77
2022/08/24 06:37:07;;;;;;;8.07;3.22;;;19.20;99.90;;;;;;5024165;28;20104;-77
2022/08/24 06:39:32;;;;;;;6.35;2.80;;;19.30;99.90;;;;;;5021808;28;20156;-77
2022/08/24 06:41:58;;;;;;;6.47;2.35;;;19.40;99.90;;;;;;5023514;28;20056;-77
2022/08/24 06:44:24;;;;;;;4.50;2.67;;;19.30;99.90;;;;;;5018426;28;20022;-76
2022/08/24 06:46:51;;;;;;;7.13;2.53;;;19.30;99.90;;;;;;5022251;28;20408;-76
2022/08/24 06:49:17;;;;;;;5.68;3.08;;;19.50;99.90;;;;;;5023501;28;20116;-76
2022/08/24 06:51:43;;;;;;;10.60;4.15;;;19.70;99.90;;;;;;5023863;28;20539;-76
2022/08/24 06:54:09;;;;;;;8.02;2.65;;;19.80;99.90;;;;;;5023837;28;20156;-75
2022/08/24 06:56:36;;;;;;;5.05;2.83;;;19.70;99.90;;;;;;5025715;28;20030;-78
2022/08/24 06:59:03;;;;;;;7.97;2.80;;;19.50;99.90;;;;;;5024248;28;20210;-79
2022/08/24 07:01:29;;;;;;;9.00;2.92;;;19.50;99.90;;;;;;5025137;28;20039;-75
2022/08/24 07:03:55;;;;;;;4.93;2.20;;;19.60;99.90;;;;;;5025742;28;20029;-75
2022/08/24 07:06:22;;;;;;;5.03;2.35;;;19.90;99.90;;;;;;5000293;28;20025;-75
2022/08/24 07:08:48;;;;;;;8.15;2.85;;;20.00;99.90;;;;;;5031866;28;20396;-76
2022/08/24 07:11:16;;;;;;;7.25;2.47;;;20.20;99.90;;;;;;5035688;28;20021;-76
2022/08/24 07:13:43;;;;;;;5.95;2.72;;;20.40;99.90;;;;;;5027478;28;20033;-76
2022/08/24 07:16:08;;;;;;;7.28;3.20;;;20.40;99.90;;;;;;5026011;28;20061;-76
2022/08/24 07:18:35;;;;;;;8.43;3.13;;;20.40;99.90;;;;;;5026431;28;20049;-76
2022/08/24 07:21:01;;;;;;;6.82;2.38;;;20.50;99.90;;;;;;5026635;28;21785;-76
2022/08/24 07:23:27;;;;;;;9.77;3.33;;;20.70;99.90;;;;;;5027213;28;20096;-76
2022/08/24 07:25:53;;;;;;;5.88;2.67;;;20.70;99.90;;;;;;5025428;28;20039;-75
2022/08/24 07:28:18;;;;;;;7.15;4.10;;;20.90;99.90;;;;;;5024936;28;20033;-75
2022/08/24 07:30:44;;;;;;;4.03;2.45;;;20.90;99.90;;;;;;5022530;28;20064;-75
2022/08/24 07:33:10;;;;;;;7.68;3.13;;;20.90;99.90;;;;;;5015572;28;20621;-73
2022/08/24 07:35:36;;;;;;;8.07;3.97;;;21.00;99.90;;;;;;5021083;28;20037;-74
2022/08/24 07:38:04;;;;;;;7.07;2.72;;;21.30;99.90;;;;;;5026179;28;20395;-74
2022/08/24 07:40:30;;;;;;;9.55;2.67;;;21.40;99.90;;;;;;5024276;28;20064;-73
2022/08/24 07:42:57;;;;;;;8.65;3.67;;;21.50;99.90;;;;;;5027179;28;20054;-74
2022/08/24 07:45:23;;;;;;;8.70;4.07;;;21.50;99.90;;;;;;5022523;28;20116;-73
2022/08/24 07:47:49;;;;;;;10.93;3.58;;;21.90;99.90;;;;;;5023285;28;20125;-74
2022/08/24 07:50:16;;;;;;;7.80;3.20;;;22.10;99.90;;;;;;5027239;28;20044;-74
2022/08/24 07:52:43;;;;;;;4.85;2.95;;;22.20;99.90;;;;;;5026264;28;20783;-74
2022/08/24 07:55:10;;;;;;;9.05;3.00;;;22.40;99.90;;;;;;5025437;28;20114;-74
2022/08/24 07:57:37;;;;;;;5.90;2.70;;;22.50;99.90;;;;;;5024582;28;20108;-74
2022/08/24 08:00:05;;;;;;;9.18;3.22;;;22.50;99.90;;;;;;5026321;28;20464;-74
2022/08/24 08:02:32;;;;;;;4.95;2.75;;;22.60;99.90;;;;;;5025956;28;20025;-74
2022/08/24 08:04:58;;;;;;;7.78;3.28;;;22.60;99.90;;;;;;5024759;28;20038;-74
2022/08/24 08:07:23;;;;;;;8.43;3.65;;;22.60;99.90;;;;;;5021824;28;20091;-73
2022/08/24 08:09:49;;;;;;;6.78;3.20;;;22.50;99.90;;;;;;5024869;28;20703;-76
2022/08/24 08:12:15;;;;;;;8.32;3.65;;;22.60;99.90;;;;;;5026347;28;20049;-76
2022/08/24 08:14:40;;;;;;;5.40;3.10;;;22.80;99.90;;;;;;5024776;28;20025;-77
2022/08/24 08:17:06;;;;;;;5.63;3.00;;;23.00;99.90;;;;;;5022532;28;20041;-78
2022/08/24 08:19:33;;;;;;;6.15;3.13;;;23.20;99.90;;;;;;5026074;28;20021;-76
2022/08/24 08:24:43;;;;;;;6.72;3.13;;;23.30;99.90;;;;;;5031181;28;20087;-76
2022/08/24 08:27:10;;;;;;;6.78;3.45;;;23.30;99.90;;;;;;5024947;28;20472;-77
2022/08/24 08:29:40;;;;;;;6.95;3.50;;;23.20;99.90;;;;;;5028908;28;20049;-76
2022/08/24 08:32:08;;;;;;;7.85;3.85;;;23.40;99.90;;;;;;5027169;28;20038;-75
2022/08/24 08:34:33;;;;;;;7.55;3.47;;;23.50;99.90;;;;;;5030001;28;20079;-77
2022/08/24 08:37:00;;;;;;;7.03;3.45;;;23.60;99.90;;;;;;5017459;28;20104;-76
2022/08/24 08:39:25;;;;;;;7.03;3.50;;;23.80;99.90;;;;;;5027139;28;20661;-77
2022/08/24 08:42:04;;;;;;;10.85;3.67;;;23.60;99.90;;;;;;5025421;28;20017;-77
2022/08/24 08:44:54;;;;;;;6.88;3.65;;;23.50;99.90;;;;;;5025746;28;20128;-79
2022/08/24 08:48:01;;;;;;;9.13;4.18;;;23.50;99.90;;;;;;5027892;28;20041;-77
2022/08/24 08:50:53;;;;;;;6.72;3.55;;;23.10;99.90;;;;;;5027307;28;20033;-76
2022/08/24 08:53:44;;;;;;;10.10;4.30;;;23.20;99.90;;;;;;5028384;28;20037;-76
2022/08/24 08:56:27;;;;;;;7.85;3.80;;;23.40;99.90;;;;;;5015059;28;20492;-76
2022/08/24 08:59:02;;;;;;;10.55;4.75;;;23.50;99.90;;;;;;5029229;28;20568;-76
2022/08/24 09:01:56;;;;;;;7.40;4.25;;;23.40;99.90;;;;;;5028385;28;20022;-76
2022/08/24 09:04:49;;;;;;;10.52;5.30;;;23.40;99.90;;;;;;5023886;28;20464;-76
2022/08/24 09:07:15;;;;;;;10.45;4.57;;;23.20;99.90;;;;;;5026857;28;20024;-76
2022/08/24 09:09:50;;;;;;;11.93;4.43;;;23.30;99.90;;;;;;5030201;28;20519;-76
2022/08/24 09:12:53;;;;;;;7.18;3.97;;;23.50;99.90;;;;;;5029542;28;20408;-76
2022/08/24 09:15:56;;;;;;;7.47;4.60;;;23.60;99.90;;;;;;5027642;28;20193;-76
2022/08/24 09:18:49;;;;;;;9.43;4.15;;;23.50;99.90;;;;;;5024046;28;20026;-76
2022/08/24 09:21:29;;;;;;;7.90;3.97;;;23.80;99.90;;;;;;5028809;28;20021;-77
2022/08/24 09:24:25;;;;;;;6.32;4.32;;;23.90;99.90;;;;;;5030419;28;20029;-77
2022/08/24 09:27:17;;;;;;;7.75;4.53;;;24.20;99.90;;;;;;5027819;28;20033;-77
2022/08/24 09:30:04;;;;;;;8.20;4.07;;;24.30;99.90;;;;;;5028562;28;20049;-77
2022/08/24 09:33:00;;;;;;;5.40;3.67;;;24.40;99.90;;;;;;5027892;28;20113;-77
2022/08/24 09:35:47;;;;;;;8.25;4.57;;;24.30;99.90;;;;;;5031940;28;20029;-76
2022/08/24 09:38:49;;;;;;;6.53;3.63;;;24.30;99.90;;;;;;5031496;28;20037;-76
2022/08/24 09:41:53;;;;;;;8.85;4.35;;;24.20;99.90;;;;;;5025669;28;20100;-76
2022/08/24 09:44:35;;;;;;;7.70;4.60;;;24.20;99.90;;;;;;5029004;28;20395;-81
2022/08/24 09:47:23;;;;;;;7.47;4.68;;;24.20;99.90;;;;;;5031530;28;20030;-77
2022/08/24 09:50:18;;;;;;;7.60;3.85;;;24.00;99.90;;;;;;5029250;28;20041;-84
2022/08/24 09:53:12;;;;;;;9.70;4.78;;;23.90;99.90;;;;;;5011614;28;20029;-82
2022/08/24 09:55:59;;;;;;;10.25;4.90;;;23.70;99.90;;;;;;5023114;28;20081;-82
2022/08/24 09:58:56;;;;;;;7.93;4.28;;;23.80;99.90;;;;;;5020472;28;20427;-83
2022/08/24 10:01:35;;;;;;;11.40;4.53;;;23.80;99.90;;;;;;5024923;28;20061;-83
2022/08/24 10:04:07;;;;;;;6.35;4.15;;;23.80;99.90;;;;;;5021274;28;20079;-86
2022/08/24 10:07:13;;;;;;;8.10;4.25;;;23.40;99.90;;;;;;5019353;28;20056;-79
2022/08/24 10:10:19;;;;;;;6.15;4.35;;;23.20;99.90;;;;;;5013617;28;20209;-76
2022/08/24 10:13:14;;;;;;;7.97;3.67;;;23.00;99.90;;;;;;5008198;28;20225;-77
2022/08/24 10:16:15;;;;;;;10.02;3.92;;;23.20;99.90;;;;;;5018519;28;20634;-76
2022/08/24 10:19:04;;;;;;;6.43;3.30;;;23.20;99.90;;;;;;5016944;28;20053;-77
2022/08/24 10:21:59;;;;;;;8.43;3.80;;;23.20;99.90;;;;;;5019970;28;20038;-77
2022/08/24 10:25:01;;;;;;;7.15;3.60;;;23.60;99.90;;;;;;5024416;28;20041;-77
2022/08/24 10:27:43;;;;;;;4.82;3.50;;;24.00;99.90;;;;;;5024083;28;20029;-76
2022/08/24 10:30:09;;;;;;;9.07;3.95;;;24.40;99.90;;;;;;5024979;28;20045;-77
2022/08/24 10:32:54;;;;;;;10.75;4.25;;;24.90;99.90;;;;;;5020741;28;20033;-76
2022/08/24 10:35:45;;;;;;;6.30;3.17;;;24.90;99.90;;;;;;5021236;28;20399;-77
2022/08/24 10:41:49;;;;;;;6.45;3.50;;;25.00;99.90;;;;;;5015373;28;20412;-76
2022/08/24 10:44:21;;;;;;;5.32;3.50;;;25.10;99.90;;;;;;5022476;28;20022;-76
2022/08/24 10:47:27;;;;;;;7.55;3.13;;;25.50;99.90;;;;;;5026384;28;20030;-77
2022/08/24 10:50:15;;;;;;;7.25;4.18;;;25.20;99.90;;;;;;4938807;28;20032;-77
2022/08/24 10:52:48;;;;;;;5.20;3.40;;;25.60;99.90;;;;;;4939365;28;20061;-76
2022/08/24 10:55:26;;;;;;;5.78;3.30;;;25.80;99.90;;;;;;4991189;28;20120;-77
2022/08/24 10:58:18;;;;;;;4.43;3.13;;;26.20;99.90;;;;;;5024512;28;20038;-76
2022/08/24 11:00:43;;;;;;;6.78;3.95;;;25.90;99.90;;;;;;5020210;28;20396;-76
2022/08/24 11:03:16;;;;;;;4.68;3.33;;;25.60;99.90;;;;;;5018487;28;20028;-76
2022/08/24 11:05:45;;;;;;;5.15;3.13;;;26.00;99.90;;;;;;5020223;28;20036;-76
2022/08/24 11:08:22;;;;;;;4.82;3.20;;;26.00;99.90;;;;;;5018674;28;20029;-76
2022/08/24 11:11:07;;;;;;;5.28;2.92;;;25.80;99.90;;;;;;5016979;28;20847;-76
2022/08/24 11:13:35;;;;;;;5.72;3.10;;;26.10;99.90;;;;;;5022804;28;20410;-76
2022/08/24 11:16:03;;;;;;;4.40;2.90;;;27.00;99.90;;;;;;5025215;28;20041;-76
2022/08/24 11:18:53;;;;;;;6.78;3.33;;;26.10;99.90;;;;;;5024333;28;20029;-76
2022/08/24 11:21:42;;;;;;;5.75;3.85;;;28.60;93.80;;;;;;5018169;28;20048;-76
2022/08/24 11:24:44;;;;;;;6.70;4.43;;;27.00;97.90;;;;;;5019481;28;20025;-76
2022/08/24 11:27:16;;;;;;;4.10;2.65;;;27.00;96.70;;;;;;5019823;28;20045;-76
2022/08/24 11:29:50;;;;;;;8.60;3.35;;;28.80;87.80;;;;;;5020952;28;20029;-77
2022/08/24 11:32:38;;;;;;;4.60;3.33;;;28.20;87.70;;;;;;5026088;28;20021;-76
2022/08/24 11:35:18;;;;;;;4.93;3.03;;;26.40;97.40;;;;;;5018695;28;20079;-76
2022/08/24 11:37:45;;;;;;;4.80;3.03;;;29.10;90.20;;;;;;5020662;28;20176;-80
2022/08/24 11:40:12;;;;;;;4.05;2.65;;;30.80;80.70;;;;;;5024179;28;20029;-76
2022/08/24 11:43:17;;;;;;;4.60;3.10;;;30.80;80.80;;;;;;5025550;28;20511;-77
2022/08/24 11:46:00;;;;;;;5.32;3.00;;;31.30;75.00;;;;;;5000272;28;20062;-77
2022/08/24 11:48:45;;;;;;;4.13;2.58;;;33.60;69.30;;;;;;5023865;28;20029;-78
2022/08/24 11:51:22;;;;;;;4.28;3.25;;;34.50;65.60;;;;;;5026482;28;20032;-78
2022/08/24 11:54:23;;;;;;;2.92;2.28;;;35.10;61.20;;;;;;5023629;28;20144;-78
2022/08/24 11:57:18;;;;;;;2.97;2.42;;;35.20;58.60;;;;;;5028329;28;20069;-79
2022/08/24 11:59:44;;;;;;;3.85;2.78;;;34.40;59.40;;;;;;5020626;28;20104;-78
2022/08/24 12:02:31;;;;;;;4.47;2.67;;;33.50;61.40;;;;;;5031110;28;20040;-78
2022/08/24 12:05:11;;;;;;;3.22;2.72;;;33.40;63.30;;;;;;5029040;28;20491;-77
2022/08/24 12:09:04;;;;;;;3.92;3.25;;;33.70;61.40;;;;;;5023068;28;20468;-76
2022/08/24 12:11:18;;;;;;;4.68;2.58;;;32.50;62.20;;;;;;5011513;28;20534;-76
2022/08/24 12:14:13;;;;;;;4.90;3.65;;;34.20;59.40;;;;;;5029251;28;20500;-76
2022/08/24 12:16:55;;;;;;;3.80;2.67;;;34.70;57.60;;;;;;5025086;28;20037;-76
2022/08/24 12:19:29;;;;;;;4.20;2.58;;;37.70;55.20;;;;;;5030482;28;20026;-78
2022/08/24 12:21:59;;;;;;;4.47;2.55;;;38.70;50.50;;;;;;5029040;28;20391;-75
2022/08/24 12:24:45;;;;;;;3.58;2.70;;;39.80;49.00;;;;;;5022114;28;20026;-76
2022/08/24 12:27:26;;;;;;;5.43;2.70;;;41.60;43.20;;;;;;5019235;28;20037;-76
2022/08/24 12:30:07;;;;;;;3.10;2.35;;;39.90;43.40;;;;;;5024960;28;20056;-75
2022/08/24 12:32:41;;;;;;;3.35;2.83;;;40.10;43.20;;;;;;5026354;28;20041;-77
2022/08/24 12:35:09;;;;;;;6.60;2.95;;;39.70;43.90;;;;;;5025067;28;20562;-77
2022/08/24 12:37:44;;;;;;;5.82;3.10;;;36.20;50.00;;;;;;5027833;28;20021;-78
2022/08/24 12:40:22;;;;;;;5.03;2.75;;;36.40;49.50;;;;;;5027593;28;20086;-78
2022/08/24 12:42:54;;;;;;;3.60;2.75;;;34.20;51.20;;;;;;5033616;28;20434;-78
2022/08/24 12:45:22;;;;;;;4.95;3.08;;;33.30;54.30;;;;;;5042815;28;20025;-79
2022/08/24 12:48:30;;;;;;;4.18;3.05;;;32.20;58.30;;;;;;5036191;28;20029;-79
2022/08/24 12:51:29;;;;;;;4.07;3.15;;;36.00;52.50;;;;;;5028119;28;20216;-81
2022/08/24 12:54:30;;;;;;;4.38;3.00;;;38.90;47.10;;;;;;5029369;28;20080;-80
2022/08/24 12:57:14;;;;;;;4.50;3.40;;;40.20;45.60;;;;;;5021618;28;20028;-80
2022/08/24 12:59:47;;;;;;;3.60;2.42;;;41.50;41.00;;;;;;5029968;28;20676;-80
2022/08/24 13:02:18;;;;;;;3.20;2.33;;;39.40;44.20;;;;;;5028855;28;20021;-79
2022/08/24 13:04:49;;;;;;;3.88;2.58;;;37.60;45.50;;;;;;5029224;28;20035;-79
2022/08/24 13:07:18;;;;;;;5.60;2.88;;;38.30;44.70;;;;;;5026626;28;20022;-79
2022/08/24 13:09:52;;;;;;;4.65;3.08;;;35.20;49.30;;;;;;5028571;28;20044;-79
2022/08/24 13:12:29;;;;;;;3.50;2.55;;;30.90;58.50;;;;;;5027545;28;20087;-78
2022/08/24 13:15:24;;;;;;;4.18;2.97;;;28.70;67.80;;;;;;5023487;28;20025;-79
2022/08/24 13:17:59;;;;;;;4.45;3.17;;;27.10;75.80;;;;;;5028954;28;20021;-79
2022/08/24 13:20:33;;;;;;;4.68;2.78;;;26.40;81.00;;;;;;5025108;28;20032;-81
2022/08/24 13:23:13;;;;;;;3.95;2.85;;;26.00;85.70;;;;;;5021541;28;20033;-81
2022/08/24 13:25:50;;;;;;;5.28;2.85;;;26.10;88.70;;;;;;5027123;28;20499;-80